Weather History for Fosston, MN

Change the Weather History Date:

Monday, September 8, 2014

  Actual Average Record
Temperature  
Mean Temperature 68 °F -  
Max Temperature 80 °F 73 °F 91 °F (2002)
Min Temperature 55 °F 48 °F 34 °F (1956)
Cooling Degree Days 2    
Growing Degree Days 18 (Base 50)    
Moisture  
Dew Point 56 °F    
Average Humidity 70    
Maximum Humidity 94    
Minimum Humidity 47    
Precipitation  
Precipitation 0.00 in - - ()
Sea Level Pressure  
Sea Level Pressure 29.75 in    
Wind  
Wind Speed 14 mph (South)    
Max Wind Speed 23 mph    
Max Gust Speed 30 mph    
Visibility 10 miles    
Events      
Averages and records for this station are not official NWS values.
T = Trace of Precipitation, MM = Missing Value Source: NWS Daily Summary

Daily Weather History Graph

Daily Weather History Graph

Search for Another Location

Airport:

Trip Planner

Search our weather history database for the weather conditions in past years. The results will help you decide how hot, cold, wet, or windy it might be!

Date:

Astronomy

Sep. 08, 2014 Rise Set
Actual Time 6:51 AM CDT 7:49 PM CDT
Civil Twilight 6:19 AM CDT 8:20 PM CDT
Nautical Twilight 5:42 AM CDT 8:58 PM CDT
Astronomical Twilight 5:02 AM CDT 9:37 PM CDT
Moon 7:27 PM CDT (9/8) 6:17 AM CDT (9/8)
Length of Visible Light 14h 01m
Length of Day
12h 58m
Full, 100% of the Moon is Illuminated
Sep 8
Full
Sep 8
Full
Sep 15
Last Quarter
Sep 24
New
Oct 1
First Quarter

Hourly Weather History & Observations

Time (CDT) Temp. Heat Index Dew Point Humidity Pressure Visibility Wind Dir Wind Speed Gust Speed Precip Events Conditions
12:15 AM 62.6 °F - 53.6 °F 72% 29.84 in 10.0 mi South 13.8 mph 19.6 mph N/A   Scattered Clouds
12:35 AM 62.6 °F - 53.6 °F 72% 29.84 in 10.0 mi South 12.7 mph 17.3 mph N/A   Scattered Clouds
12:55 AM 62.6 °F - 53.6 °F 72% 29.84 in 10.0 mi South 12.7 mph 16.1 mph N/A   Mostly Cloudy
1:15 AM 62.6 °F - 55.4 °F 77% 29.84 in 10.0 mi South 13.8 mph - N/A   Mostly Cloudy
1:35 AM 62.6 °F - 53.6 °F 72% 29.83 in 10.0 mi South 12.7 mph 17.3 mph N/A   Mostly Cloudy
1:55 AM 62.6 °F - 53.6 °F 72% 29.83 in 10.0 mi South 15.0 mph 19.6 mph N/A   Mostly Cloudy
2:15 AM 62.6 °F - 53.6 °F 72% 29.82 in 10.0 mi South 11.5 mph 18.4 mph N/A   Scattered Clouds
2:35 AM 62.6 °F - 53.6 °F 72% 29.82 in 10.0 mi South 13.8 mph 18.4 mph N/A   Mostly Cloudy
2:55 AM 62.6 °F - 53.6 °F 72% 29.82 in 10.0 mi South 11.5 mph 17.3 mph N/A   Scattered Clouds
3:15 AM 60.8 °F - 53.6 °F 77% 29.81 in 10.0 mi South 11.5 mph 19.6 mph N/A   Scattered Clouds
3:35 AM 60.8 °F - 53.6 °F 77% 29.80 in 10.0 mi South 12.7 mph - N/A   Clear
3:55 AM 60.8 °F - 53.6 °F 77% 29.79 in 10.0 mi South 13.8 mph - N/A   Clear
4:15 AM 60.8 °F - 53.6 °F 77% 29.79 in 10.0 mi South 11.5 mph - N/A   Clear
4:35 AM 60.8 °F - 53.6 °F 77% 29.78 in 10.0 mi South 12.7 mph - N/A   Clear
4:55 AM 59.0 °F - 53.6 °F 82% 29.78 in 10.0 mi SSE 10.4 mph - N/A   Clear
5:15 AM 59.0 °F - 53.6 °F 82% 29.77 in 10.0 mi South 11.5 mph - N/A   Clear
5:35 AM 59.0 °F - 53.6 °F 82% 29.76 in 10.0 mi SSE 10.4 mph - N/A   Clear
5:55 AM 59.0 °F - 53.6 °F 82% 29.76 in 10.0 mi SSE 11.5 mph - N/A   Clear
6:15 AM 59.0 °F - 53.6 °F 82% 29.76 in 10.0 mi SSE 11.5 mph - N/A   Clear
6:34 AM 59.0 °F - 53.6 °F 82% 29.75 in 10.0 mi SSE 11.5 mph - N/A   Clear
6:55 AM 57.2 °F - 53.6 °F 88% 29.75 in 10.0 mi SSE 9.2 mph - N/A   Clear
7:15 AM 57.2 °F - 53.6 °F 88% 29.75 in 10.0 mi SSE 10.4 mph - N/A   Clear
7:34 AM 59.0 °F - 53.6 °F 82% 29.75 in 10.0 mi SSE 9.2 mph - N/A   Clear
7:55 AM 59.0 °F - 53.6 °F 82% 29.74 in 10.0 mi SSE 9.2 mph - N/A   Clear
8:15 AM 60.8 °F - 53.6 °F 77% 29.73 in 10.0 mi SSE 13.8 mph 18.4 mph N/A   Clear
8:34 AM 62.6 °F - 53.6 °F 72% 29.73 in 10.0 mi SSE 13.8 mph 18.4 mph N/A   Clear
8:55 AM 62.6 °F - 53.6 °F 72% 29.73 in 10.0 mi South 17.3 mph 20.7 mph N/A   Clear
9:15 AM 64.4 °F - 53.6 °F 68% 29.72 in 10.0 mi South 16.1 mph 21.9 mph N/A   Clear
9:35 AM 64.4 °F - 53.6 °F 68% 29.72 in 10.0 mi South 18.4 mph 24.2 mph N/A   Clear
9:55 AM 66.2 °F - 53.6 °F 64% 29.72 in 10.0 mi South 18.4 mph 21.9 mph N/A   Clear
10:15 AM 68.0 °F - 55.4 °F 64% 29.72 in 10.0 mi South 20.7 mph 24.2 mph N/A   Clear
10:35 AM 69.8 °F - 55.4 °F 60% 29.71 in 10.0 mi South 18.4 mph 25.3 mph N/A   Clear
10:55 AM 69.8 °F - 55.4 °F 60% 29.71 in 10.0 mi South 20.7 mph 24.2 mph N/A   Clear
11:15 AM 69.8 °F - 55.4 °F 60% 29.71 in 10.0 mi South 20.7 mph 24.2 mph N/A   Clear
11:35 AM 71.6 °F - 55.4 °F 57% 29.71 in 10.0 mi South 21.9 mph 25.3 mph N/A   Clear
11:55 AM 71.6 °F - 55.4 °F 57% 29.71 in 10.0 mi South 20.7 mph 27.6 mph N/A   Clear
12:15 PM 73.4 °F - 55.4 °F 53% 29.70 in 10.0 mi South 23.0 mph 29.9 mph N/A   Clear
12:34 PM 73.4 °F - 55.4 °F 53% 29.70 in 10.0 mi South 21.9 mph 29.9 mph N/A   Clear
12:55 PM 73.4 °F - 55.4 °F 53% 29.69 in 10.0 mi South 23.0 mph 28.8 mph N/A   Clear
1:15 PM 75.2 °F - 55.4 °F 50% 29.69 in 10.0 mi South 21.9 mph 29.9 mph N/A   Clear
1:34 PM 75.2 °F - 57.2 °F 53% 29.70 in 10.0 mi SSW 20.7 mph 26.5 mph N/A   Clear
1:55 PM 75.2 °F - 57.2 °F 53% 29.69 in 10.0 mi SSW 18.4 mph 26.5 mph N/A   Clear
2:15 PM 77.0 °F - 57.2 °F 50% 29.70 in 10.0 mi SSW 20.7 mph 27.6 mph N/A   Clear
2:34 PM 77.0 °F - 57.2 °F 50% 29.69 in 10.0 mi SSW 19.6 mph 25.3 mph N/A   Clear
2:55 PM 78.8 °F - 57.2 °F 47% 29.69 in 10.0 mi SSW 19.6 mph 25.3 mph N/A   Clear
3:15 PM 78.8 °F - 57.2 °F 47% 29.69 in 10.0 mi SSW 18.4 mph 25.3 mph N/A   Clear
3:34 PM 78.8 °F - 57.2 °F 47% 29.69 in 10.0 mi South 19.6 mph 26.5 mph N/A   Clear
3:55 PM 78.8 °F - 59.0 °F 51% 29.69 in 10.0 mi SSW 18.4 mph 26.5 mph N/A   Clear
4:15 PM 80.6 °F 81.1 °F 59.0 °F 48% 29.70 in 10.0 mi SSW 19.6 mph 25.3 mph N/A   Clear
4:35 PM 78.8 °F - 59.0 °F 51% 29.69 in 10.0 mi SSW 15.0 mph 25.3 mph N/A   Clear
4:55 PM 80.6 °F 81.5 °F 60.8 °F 51% 29.70 in 10.0 mi South 16.1 mph 23.0 mph N/A   Clear
5:15 PM 80.6 °F 81.5 °F 60.8 °F 51% 29.70 in 10.0 mi SSW 12.7 mph - N/A   Clear
5:35 PM 80.6 °F 81.5 °F 60.8 °F 51% 29.70 in 10.0 mi South 13.8 mph - N/A   Clear
5:55 PM 78.8 °F - 60.8 °F 54% 29.70 in 10.0 mi South 11.5 mph 17.3 mph N/A   Clear
6:15 PM 78.8 °F - 60.8 °F 54% 29.71 in 10.0 mi South 12.7 mph 21.9 mph N/A   Clear
6:35 PM 77.0 °F - 60.8 °F 57% 29.71 in 10.0 mi South 13.8 mph - N/A   Clear
6:55 PM 75.2 °F - 60.8 °F 61% 29.72 in 10.0 mi South 10.4 mph - N/A   Clear
7:15 PM 73.4 °F - 60.8 °F 65% 29.72 in 10.0 mi South 9.2 mph - N/A   Clear
7:35 PM 71.6 °F - 60.8 °F 69% 29.73 in 10.0 mi South 6.9 mph - N/A   Clear
7:55 PM 66.2 °F - 60.8 °F 83% 29.73 in 10.0 mi Calm Calm - N/A   Clear
8:15 PM 66.2 °F - 60.8 °F 83% 29.74 in 10.0 mi South 6.9 mph - N/A   Clear
8:35 PM 64.4 °F - 60.8 °F 88% 29.75 in 10.0 mi Calm Calm - N/A   Clear
8:55 PM 64.4 °F - 60.8 °F 88% 29.76 in 10.0 mi Calm Calm - N/A   Clear
9:15 PM 64.4 °F - 59.0 °F 83% 29.77 in 10.0 mi NNW 11.5 mph - N/A   Clear
9:35 PM 62.6 °F - 57.2 °F 82% 29.78 in 10.0 mi NNW 13.8 mph - N/A   Clear
9:55 PM 60.8 °F - 55.4 °F 82% 29.79 in 10.0 mi North 10.4 mph - N/A   Clear
10:15 PM 57.2 °F - 55.4 °F 94% 29.80 in 10.0 mi North 9.2 mph - N/A   Clear
10:35 PM 57.2 °F - 53.6 °F 88% 29.81 in 10.0 mi North 11.5 mph - N/A   Clear
10:55 PM 55.4 °F - 53.6 °F 94% 29.82 in 10.0 mi North 8.1 mph - N/A   Clear
11:15 PM 55.4 °F - 53.6 °F 94% 29.82 in 10.0 mi North 5.8 mph - N/A   Scattered Clouds
11:35 PM 55.4 °F - 53.6 °F 94% 29.83 in 10.0 mi North 8.1 mph - N/A   Overcast
11:55 PM 55.4 °F - 53.6 °F 94% 29.83 in 10.0 mi North 10.4 mph - N/A   Overcast